Date,TemperatureHighF,TemperatureAvgF,TemperatureLowF,DewpointHighF,DewpointAvgF,DewpointLowF,HumidityHigh,HumidityAvg,HumidityLow,PressureMaxIn,PressureMinIn,WindSpeedMaxMPH,WindSpeedAvgMPH,GustSpeedMaxMPH,PrecipitationSumIn
2013-11-1,61.5,53.5,47.5,60.0,48.0,41.6,99,82,68,29.70,29.24,21,3,30,0.24
2013-11-2,47.5,45.7,43.0,46.7,43.9,40.3,99,93,83,30.02,29.67,6,1,10,0.86
2013-11-3,49.6,39.9,32.7,40.5,32.5,23.3,99,76,55,30.45,30.01,7,1,9,0.00
2013-11-4,46.6,38.4,31.8,25.0,20.5,14.6,70,50,29,30.49,30.35,13,5,20,0.00
2013-11-5,59.7,51.4,43.2,42.4,35.4,24.8,62,54,48,30.41,30.25,11,3,15,0.00
2013-11-6,65.5,55.8,48.4,58.4,44.7,33.3,99,68,50,30.26,29.90,16,4,22,0.20
2013-11-7,48.6,42.0,37.0,48.3,36.0,25.6,99,81,54,30.11,29.94,13,2,20,0.50
2013-11-8,45.9,38.3,33.4,35.1,27.6,22.5,98,66,48,30.27,30.07,10,2,14,0.12
2013-11-9,58.3,46.7,33.8,41.2,31.4,25.1,71,56,37,30.23,29.86,18,4,28,0.00
2013-11-10,52.9,45.4,38.7,40.2,32.1,24.8,74,60,48,30.26,29.92,12,3,23,0.00
2013-11-11,47.5,39.2,29.3,41.0,31.2,27.3,99,75,47,30.25,30.01,15,2,22,0.30
2013-11-12,41.5,31.5,28.0,29.1,22.0,13.3,99,69,45,30.46,30.20,10,2,15,0.01
2013-11-13,38.7,32.6,27.3,22.4,16.6,10.8,68,52,37,30.49,30.24,13,3,18,0.02
2013-11-14,51.1,40.7,30.0,20.4,14.9,12.2,60,37,23,30.24,30.07,14,4,21,0.04
2013-11-15,53.8,46.7,38.7,31.2,20.9,13.5,54,36,25,30.12,30.05,15,3,21,0.00
2013-11-16,60.1,51.4,42.4,50.7,42.5,29.9,81,72,53,30.17,29.91,15,5,24,0.00
2013-11-17,62.6,58.9,51.6,58.3,53.1,39.3,97,82,58,29.91,29.42,23,8,36,0.51
2013-11-18,51.6,43.5,35.8,39.8,33.0,21.2,76,66,55,30.09,29.57,14,5,26,0.00
2013-11-19,39.2,35.2,28.9,25.4,22.9,19.4,85,61,49,30.39,30.09,10,2,16,0.00
2013-11-20,47.7,37.3,24.8,26.2,15.8,7.9,88,49,21,30.42,30.28,16,4,23,0.00
2013-11-21,46.2,41.6,38.5,42.2,29.6,10.1,90,66,29,30.35,30.18,13,5,24,0.04
2013-11-22,48.4,43.5,35.8,48.1,41.4,25.6,99,93,66,30.31,30.12,10,2,14,0.25
2013-11-23,35.6,29.9,20.5,27.4,17.0,-2.6,89,59,34,30.37,30.19,14,4,21,0.01
2013-11-24,23.4,21.6,20.1,12.8,5.9,-2.6,69,50,34,30.50,30.37,11,4,24,0.00
2013-11-25,34.7,26.4,18.5,21.8,9.2,1.8,72,49,28,30.42,30.13,15,4,28,0.00
2013-11-26,34.9,32.5,30.7,31.8,26.2,13.9,99,79,43,30.14,29.82,9,1,14,0.00
2013-11-27,33.8,28.0,24.3,30.6,18.3,9.6,92,68,51,30.11,29.78,11,3,19,0.00
2013-11-28,28.9,25.2,20.8,19.0,13.0,8.9,85,60,47,30.38,30.11,8,2,16,0.00
2013-11-29,33.6,28.9,25.2,23.7,18.2,13.8,76,64,56,30.61,30.38,6,0,11,0.00
2013-11-30,41.2,32.8,27.3,24.4,19.5,13.5,66,58,50,30.56,30.14,14,5,21,0.02